Terminal Aerodrome Forecast
Issued by NWS Charleston, SC

Home | Current Version | Previous Version | Text Only | Print | Product List | Glossary On
Versions: 1 2 3 4 5 6 7 8 9 10 11 12 13 14
295
FTUS42 KCHS 280522
TAFCHS
TAF
KCHS 280522Z 2806/2906 24005KT P6SM SCT200
     FM281500 27010KT P6SM SCT050 BKN200
     FM282000 23012G18KT P6SM SCT045 BKN200
     FM290000 22007KT P6SM BKN200=

USA.gov is the U.S. government's official web portal to all federal, state and local government web resources and services.